sensor_id;sensor_type;location;lat;lon;timestamp;temperature;humidity
14733;DHT22;7457;50.960;6.830;2024-02-26T00:02:24;7.20;81.60
14733;DHT22;7457;50.960;6.830;2024-02-26T00:04:49;7.20;82.00
14733;DHT22;7457;50.960;6.830;2024-02-26T00:07:16;7.10;82.00
14733;DHT22;7457;50.960;6.830;2024-02-26T00:09:42;7.10;82.10
14733;DHT22;7457;50.960;6.830;2024-02-26T00:12:08;7.10;82.40
14733;DHT22;7457;50.960;6.830;2024-02-26T00:14:34;7.10;82.60
14733;DHT22;7457;50.960;6.830;2024-02-26T00:17:00;7.00;82.80
14733;DHT22;7457;50.960;6.830;2024-02-26T00:19:26;7.00;83.40
14733;DHT22;7457;50.960;6.830;2024-02-26T00:21:51;7.00;83.40
14733;DHT22;7457;50.960;6.830;2024-02-26T00:24:19;7.00;83.50
14733;DHT22;7457;50.960;6.830;2024-02-26T00:26:45;7.00;83.70
14733;DHT22;7457;50.960;6.830;2024-02-26T00:29:10;7.00;84.00
14733;DHT22;7457;50.960;6.830;2024-02-26T00:31:37;6.90;83.90
14733;DHT22;7457;50.960;6.830;2024-02-26T00:34:03;6.90;84.20
14733;DHT22;7457;50.960;6.830;2024-02-26T00:36:29;6.90;84.10
14733;DHT22;7457;50.960;6.830;2024-02-26T00:38:55;6.90;84.40
14733;DHT22;7457;50.960;6.830;2024-02-26T00:41:21;6.90;84.60
14733;DHT22;7457;50.960;6.830;2024-02-26T00:43:47;6.90;84.70
14733;DHT22;7457;50.960;6.830;2024-02-26T00:46:13;6.90;84.70
14733;DHT22;7457;50.960;6.830;2024-02-26T00:48:39;6.90;84.80
14733;DHT22;7457;50.960;6.830;2024-02-26T00:51:05;6.90;84.90
14733;DHT22;7457;50.960;6.830;2024-02-26T00:53:31;6.90;84.90
14733;DHT22;7457;50.960;6.830;2024-02-26T00:55:57;6.90;85.00
14733;DHT22;7457;50.960;6.830;2024-02-26T00:58:27;6.90;85.10
14733;DHT22;7457;50.960;6.830;2024-02-26T01:00:53;6.90;85.10
14733;DHT22;7457;50.960;6.830;2024-02-26T01:03:19;6.90;85.30
14733;DHT22;7457;50.960;6.830;2024-02-26T01:05:45;6.90;85.60
14733;DHT22;7457;50.960;6.830;2024-02-26T01:08:10;6.90;85.90
14733;DHT22;7457;50.960;6.830;2024-02-26T01:10:36;6.80;85.80
14733;DHT22;7457;50.960;6.830;2024-02-26T01:13:02;6.80;86.40
14733;DHT22;7457;50.960;6.830;2024-02-26T01:15:28;6.80;86.60
14733;DHT22;7457;50.960;6.830;2024-02-26T01:17:54;6.70;87.10
14733;DHT22;7457;50.960;6.830;2024-02-26T01:20:20;6.70;87.50
14733;DHT22;7457;50.960;6.830;2024-02-26T01:22:46;6.60;87.50
14733;DHT22;7457;50.960;6.830;2024-02-26T01:25:12;6.60;88.00
14733;DHT22;7457;50.960;6.830;2024-02-26T01:27:38;6.60;88.40
14733;DHT22;7457;50.960;6.830;2024-02-26T01:30:07;6.60;88.70
14733;DHT22;7457;50.960;6.830;2024-02-26T01:32:33;6.50;89.10
14733;DHT22;7457;50.960;6.830;2024-02-26T01:34:59;6.50;89.30
14733;DHT22;7457;50.960;6.830;2024-02-26T01:37:24;6.50;89.50
14733;DHT22;7457;50.960;6.830;2024-02-26T01:39:50;6.50;89.50
14733;DHT22;7457;50.960;6.830;2024-02-26T01:42:16;6.40;89.90
14733;DHT22;7457;50.960;6.830;2024-02-26T01:44:41;6.40;90.20
14733;DHT22;7457;50.960;6.830;2024-02-26T01:47:10;6.40;90.50
14733;DHT22;7457;50.960;6.830;2024-02-26T01:49:37;6.40;90.50
14733;DHT22;7457;50.960;6.830;2024-02-26T01:52:03;6.30;90.90
14733;DHT22;7457;50.960;6.830;2024-02-26T01:54:30;6.30;90.90
14733;DHT22;7457;50.960;6.830;2024-02-26T01:56:56;6.20;91.20
14733;DHT22;7457;50.960;6.830;2024-02-26T01:59:23;6.20;92.00
14733;DHT22;7457;50.960;6.830;2024-02-26T02:01:54;6.20;92.10
14733;DHT22;7457;50.960;6.830;2024-02-26T02:04:22;6.20;92.90
14733;DHT22;7457;50.960;6.830;2024-02-26T02:06:48;6.10;92.70
14733;DHT22;7457;50.960;6.830;2024-02-26T02:09:15;6.10;93.50
14733;DHT22;7457;50.960;6.830;2024-02-26T02:11:41;6.10;93.50
14733;DHT22;7457;50.960;6.830;2024-02-26T02:14:06;6.00;94.20
14733;DHT22;7457;50.960;6.830;2024-02-26T02:16:32;6.00;94.90
14733;DHT22;7457;50.960;6.830;2024-02-26T02:18:58;6.00;95.20
14733;DHT22;7457;50.960;6.830;2024-02-26T02:21:24;6.00;95.60
14733;DHT22;7457;50.960;6.830;2024-02-26T02:23:50;6.00;96.20
14733;DHT22;7457;50.960;6.830;2024-02-26T02:26:16;6.00;95.60
14733;DHT22;7457;50.960;6.830;2024-02-26T02:28:42;5.90;96.30
14733;DHT22;7457;50.960;6.830;2024-02-26T02:31:08;6.00;96.40
14733;DHT22;7457;50.960;6.830;2024-02-26T02:33:34;5.90;96.70
14733;DHT22;7457;50.960;6.830;2024-02-26T02:36:00;5.90;97.40
14733;DHT22;7457;50.960;6.830;2024-02-26T02:38:26;5.90;96.90
14733;DHT22;7457;50.960;6.830;2024-02-26T02:40:55;5.90;97.60
14733;DHT22;7457;50.960;6.830;2024-02-26T02:43:21;5.90;97.90
14733;DHT22;7457;50.960;6.830;2024-02-26T02:45:46;5.90;97.80
14733;DHT22;7457;50.960;6.830;2024-02-26T02:48:12;5.90;97.80
14733;DHT22;7457;50.960;6.830;2024-02-26T02:50:38;5.90;97.70
14733;DHT22;7457;50.960;6.830;2024-02-26T02:53:04;5.90;98.40
14733;DHT22;7457;50.960;6.830;2024-02-26T02:55:30;5.90;98.40
14733;DHT22;7457;50.960;6.830;2024-02-26T02:57:56;5.90;98.80
14733;DHT22;7457;50.960;6.830;2024-02-26T03:00:21;5.90;98.60
14733;DHT22;7457;50.960;6.830;2024-02-26T03:02:50;5.90;99.10
14733;DHT22;7457;50.960;6.830;2024-02-26T03:05:16;5.90;99.00
14733;DHT22;7457;50.960;6.830;2024-02-26T03:07:42;5.80;99.30
14733;DHT22;7457;50.960;6.830;2024-02-26T03:10:08;5.80;99.70
14733;DHT22;7457;50.960;6.830;2024-02-26T03:12:34;5.80;100.00
14733;DHT22;7457;50.960;6.830;2024-02-26T03:15:00;5.80;99.80
14733;DHT22;7457;50.960;6.830;2024-02-26T03:17:30;5.80;100.00
14733;DHT22;7457;50.960;6.830;2024-02-26T03:19:55;5.80;100.00
14733;DHT22;7457;50.960;6.830;2024-02-26T03:22:21;5.80;100.00
14733;DHT22;7457;50.960;6.830;2024-02-26T03:24:48;5.80;100.00
14733;DHT22;7457;50.960;6.830;2024-02-26T03:27:14;5.80;100.00
14733;DHT22;7457;50.960;6.830;2024-02-26T03:29:40;5.80;100.00
14733;DHT22;7457;50.960;6.830;2024-02-26T03:32:06;5.80;100.00
14733;DHT22;7457;50.960;6.830;2024-02-26T03:34:32;5.80;100.00
14733;DHT22;7457;50.960;6.830;2024-02-26T03:37:01;5.80;100.00
14733;DHT22;7457;50.960;6.830;2024-02-26T03:39:27;5.80;100.00
14733;DHT22;7457;50.960;6.830;2024-02-26T03:41:53;5.80;100.00
14733;DHT22;7457;50.960;6.830;2024-02-26T03:44:19;5.80;100.00
14733;DHT22;7457;50.960;6.830;2024-02-26T03:46:45;5.90;100.00
14733;DHT22;7457;50.960;6.830;2024-02-26T03:49:11;5.90;100.00
14733;DHT22;7457;50.960;6.830;2024-02-26T03:51:37;5.90;100.00
14733;DHT22;7457;50.960;6.830;2024-02-26T03:54:03;5.90;100.00
14733;DHT22;7457;50.960;6.830;2024-02-26T03:56:29;5.90;100.00
14733;DHT22;7457;50.960;6.830;2024-02-26T03:58:55;5.90;100.00
14733;DHT22;7457;50.960;6.830;2024-02-26T04:01:21;5.90;100.00
14733;DHT22;7457;50.960;6.830;2024-02-26T04:03:47;6.00;100.00
14733;DHT22;7457;50.960;6.830;2024-02-26T04:06:12;6.00;100.00
14733;DHT22;7457;50.960;6.830;2024-02-26T04:08:43;5.90;100.00
14733;DHT22;7457;50.960;6.830;2024-02-26T04:11:09;6.00;100.00
14733;DHT22;7457;50.960;6.830;2024-02-26T04:13:35;6.00;100.00
14733;DHT22;7457;50.960;6.830;2024-02-26T04:16:01;5.90;100.00
14733;DHT22;7457;50.960;6.830;2024-02-26T04:18:28;5.90;100.00
14733;DHT22;7457;50.960;6.830;2024-02-26T04:20:54;5.90;100.00
14733;DHT22;7457;50.960;6.830;2024-02-26T04:23:19;5.90;100.00
14733;DHT22;7457;50.960;6.830;2024-02-26T04:25:45;5.90;100.00
14733;DHT22;7457;50.960;6.830;2024-02-26T04:28:11;5.90;100.00
14733;DHT22;7457;50.960;6.830;2024-02-26T04:30:37;5.90;100.00
14733;DHT22;7457;50.960;6.830;2024-02-26T04:33:04;5.90;100.00
14733;DHT22;7457;50.960;6.830;2024-02-26T04:35:29;5.90;100.00
14733;DHT22;7457;50.960;6.830;2024-02-26T04:37:55;5.90;100.00
14733;DHT22;7457;50.960;6.830;2024-02-26T04:40:21;5.90;100.00
14733;DHT22;7457;50.960;6.830;2024-02-26T04:42:47;5.80;100.00
14733;DHT22;7457;50.960;6.830;2024-02-26T04:45:12;5.80;100.00
14733;DHT22;7457;50.960;6.830;2024-02-26T04:47:38;5.80;100.00
14733;DHT22;7457;50.960;6.830;2024-02-26T04:50:05;5.80;100.00
14733;DHT22;7457;50.960;6.830;2024-02-26T04:52:31;5.70;100.00
14733;DHT22;7457;50.960;6.830;2024-02-26T04:54:56;5.70;100.00
14733;DHT22;7457;50.960;6.830;2024-02-26T04:57:22;5.70;100.00
14733;DHT22;7457;50.960;6.830;2024-02-26T04:59:48;5.60;100.00
14733;DHT22;7457;50.960;6.830;2024-02-26T05:02:14;5.60;100.00
14733;DHT22;7457;50.960;6.830;2024-02-26T05:04:39;5.60;100.00
14733;DHT22;7457;50.960;6.830;2024-02-26T05:07:05;5.60;100.00
14733;DHT22;7457;50.960;6.830;2024-02-26T05:09:32;5.60;100.00
14733;DHT22;7457;50.960;6.830;2024-02-26T05:11:57;5.60;100.00
14733;DHT22;7457;50.960;6.830;2024-02-26T05:14:23;5.60;100.00
14733;DHT22;7457;50.960;6.830;2024-02-26T05:16:49;5.60;100.00
14733;DHT22;7457;50.960;6.830;2024-02-26T05:19:16;5.60;100.00
14733;DHT22;7457;50.960;6.830;2024-02-26T05:21:41;5.60;100.00
14733;DHT22;7457;50.960;6.830;2024-02-26T05:24:10;5.60;100.00
14733;DHT22;7457;50.960;6.830;2024-02-26T05:26:36;5.60;100.00
14733;DHT22;7457;50.960;6.830;2024-02-26T05:29:01;5.60;100.00
14733;DHT22;7457;50.960;6.830;2024-02-26T05:31:28;5.60;100.00
14733;DHT22;7457;50.960;6.830;2024-02-26T05:33:54;5.60;100.00
14733;DHT22;7457;50.960;6.830;2024-02-26T05:36:21;5.60;100.00
14733;DHT22;7457;50.960;6.830;2024-02-26T05:38:48;5.60;100.00
14733;DHT22;7457;50.960;6.830;2024-02-26T05:41:17;5.60;100.00
14733;DHT22;7457;50.960;6.830;2024-02-26T05:43:54;5.60;100.00
14733;DHT22;7457;50.960;6.830;2024-02-26T05:46:21;5.60;100.00
14733;DHT22;7457;50.960;6.830;2024-02-26T05:48:49;5.60;100.00
14733;DHT22;7457;50.960;6.830;2024-02-26T05:51:15;5.60;100.00
14733;DHT22;7457;50.960;6.830;2024-02-26T05:53:41;5.50;100.00
14733;DHT22;7457;50.960;6.830;2024-02-26T05:56:07;5.50;100.00
14733;DHT22;7457;50.960;6.830;2024-02-26T05:58:33;5.50;100.00
14733;DHT22;7457;50.960;6.830;2024-02-26T06:00:58;5.50;100.00
14733;DHT22;7457;50.960;6.830;2024-02-26T06:03:26;5.50;100.00
14733;DHT22;7457;50.960;6.830;2024-02-26T06:05:51;5.50;100.00
14733;DHT22;7457;50.960;6.830;2024-02-26T06:08:17;5.40;100.00
14733;DHT22;7457;50.960;6.830;2024-02-26T06:10:43;5.40;100.00
14733;DHT22;7457;50.960;6.830;2024-02-26T06:13:09;5.40;100.00
14733;DHT22;7457;50.960;6.830;2024-02-26T06:15:35;5.40;100.00
14733;DHT22;7457;50.960;6.830;2024-02-26T06:18:01;5.40;100.00
14733;DHT22;7457;50.960;6.830;2024-02-26T06:20:26;5.40;100.00
14733;DHT22;7457;50.960;6.830;2024-02-26T06:22:52;5.40;100.00
14733;DHT22;7457;50.960;6.830;2024-02-26T06:25:18;5.40;100.00
14733;DHT22;7457;50.960;6.830;2024-02-26T06:27:43;5.40;100.00
14733;DHT22;7457;50.960;6.830;2024-02-26T06:30:09;5.40;100.00
14733;DHT22;7457;50.960;6.830;2024-02-26T06:32:37;5.40;100.00
14733;DHT22;7457;50.960;6.830;2024-02-26T06:35:03;5.40;100.00
14733;DHT22;7457;50.960;6.830;2024-02-26T06:37:33;5.40;100.00
14733;DHT22;7457;50.960;6.830;2024-02-26T06:40:00;5.40;100.00
14733;DHT22;7457;50.960;6.830;2024-02-26T06:42:26;5.30;100.00
14733;DHT22;7457;50.960;6.830;2024-02-26T06:44:51;5.40;100.00
14733;DHT22;7457;50.960;6.830;2024-02-26T06:47:17;5.40;100.00
14733;DHT22;7457;50.960;6.830;2024-02-26T06:49:43;5.30;100.00
14733;DHT22;7457;50.960;6.830;2024-02-26T06:52:09;5.30;100.00
14733;DHT22;7457;50.960;6.830;2024-02-26T06:54:35;5.30;100.00
14733;DHT22;7457;50.960;6.830;2024-02-26T06:57:01;5.30;100.00
14733;DHT22;7457;50.960;6.830;2024-02-26T06:59:27;5.30;100.00
14733;DHT22;7457;50.960;6.830;2024-02-26T07:01:53;5.30;100.00
14733;DHT22;7457;50.960;6.830;2024-02-26T07:04:19;5.30;100.00
14733;DHT22;7457;50.960;6.830;2024-02-26T07:06:45;5.30;100.00
14733;DHT22;7457;50.960;6.830;2024-02-26T07:09:12;5.30;100.00
14733;DHT22;7457;50.960;6.830;2024-02-26T07:11:38;5.30;100.00
14733;DHT22;7457;50.960;6.830;2024-02-26T07:14:11;5.30;100.00
14733;DHT22;7457;50.960;6.830;2024-02-26T07:16:37;5.30;100.00
14733;DHT22;7457;50.960;6.830;2024-02-26T07:19:03;5.30;100.00
14733;DHT22;7457;50.960;6.830;2024-02-26T07:21:29;5.30;100.00
14733;DHT22;7457;50.960;6.830;2024-02-26T07:23:55;5.30;100.00
14733;DHT22;7457;50.960;6.830;2024-02-26T07:26:20;5.40;100.00
14733;DHT22;7457;50.960;6.830;2024-02-26T07:28:46;5.30;100.00
14733;DHT22;7457;50.960;6.830;2024-02-26T07:31:12;5.30;100.00
14733;DHT22;7457;50.960;6.830;2024-02-26T07:33:38;5.40;100.00
14733;DHT22;7457;50.960;6.830;2024-02-26T07:36:04;5.40;100.00
14733;DHT22;7457;50.960;6.830;2024-02-26T07:38:30;5.40;100.00
14733;DHT22;7457;50.960;6.830;2024-02-26T07:40:55;5.40;100.00
14733;DHT22;7457;50.960;6.830;2024-02-26T07:43:22;5.40;100.00
14733;DHT22;7457;50.960;6.830;2024-02-26T07:45:48;5.40;100.00
14733;DHT22;7457;50.960;6.830;2024-02-26T07:48:14;5.40;100.00
14733;DHT22;7457;50.960;6.830;2024-02-26T07:50:40;5.40;100.00
14733;DHT22;7457;50.960;6.830;2024-02-26T07:53:06;5.40;100.00
14733;DHT22;7457;50.960;6.830;2024-02-26T07:55:32;5.40;100.00
14733;DHT22;7457;50.960;6.830;2024-02-26T07:57:57;5.40;100.00
14733;DHT22;7457;50.960;6.830;2024-02-26T08:00:23;5.40;100.00
14733;DHT22;7457;50.960;6.830;2024-02-26T08:02:49;5.40;100.00
14733;DHT22;7457;50.960;6.830;2024-02-26T08:05:15;5.40;100.00
14733;DHT22;7457;50.960;6.830;2024-02-26T08:07:41;5.40;100.00
14733;DHT22;7457;50.960;6.830;2024-02-26T08:10:07;5.40;100.00
14733;DHT22;7457;50.960;6.830;2024-02-26T08:12:33;5.40;100.00
14733;DHT22;7457;50.960;6.830;2024-02-26T08:14:59;5.40;100.00
14733;DHT22;7457;50.960;6.830;2024-02-26T08:17:25;5.40;100.00
14733;DHT22;7457;50.960;6.830;2024-02-26T08:19:52;5.50;100.00
14733;DHT22;7457;50.960;6.830;2024-02-26T08:22:18;5.50;100.00
14733;DHT22;7457;50.960;6.830;2024-02-26T08:24:44;5.50;100.00
14733;DHT22;7457;50.960;6.830;2024-02-26T08:27:10;5.50;100.00
14733;DHT22;7457;50.960;6.830;2024-02-26T08:29:36;5.50;100.00
14733;DHT22;7457;50.960;6.830;2024-02-26T08:32:02;5.50;100.00
14733;DHT22;7457;50.960;6.830;2024-02-26T08:34:27;5.50;100.00
14733;DHT22;7457;50.960;6.830;2024-02-26T08:36:53;5.50;100.00
14733;DHT22;7457;50.960;6.830;2024-02-26T08:39:19;5.50;100.00
14733;DHT22;7457;50.960;6.830;2024-02-26T08:41:45;5.50;100.00
14733;DHT22;7457;50.960;6.830;2024-02-26T08:44:11;5.50;100.00
14733;DHT22;7457;50.960;6.830;2024-02-26T08:46:37;5.50;100.00
14733;DHT22;7457;50.960;6.830;2024-02-26T08:49:03;5.50;100.00
14733;DHT22;7457;50.960;6.830;2024-02-26T08:51:29;5.50;100.00
14733;DHT22;7457;50.960;6.830;2024-02-26T08:53:55;5.60;100.00
14733;DHT22;7457;50.960;6.830;2024-02-26T08:56:20;5.60;100.00
14733;DHT22;7457;50.960;6.830;2024-02-26T08:58:47;5.60;100.00
14733;DHT22;7457;50.960;6.830;2024-02-26T09:01:17;5.60;100.00
14733;DHT22;7457;50.960;6.830;2024-02-26T09:03:43;5.60;100.00
14733;DHT22;7457;50.960;6.830;2024-02-26T09:06:09;5.60;100.00
14733;DHT22;7457;50.960;6.830;2024-02-26T09:08:34;5.60;100.00
14733;DHT22;7457;50.960;6.830;2024-02-26T09:11:02;5.60;100.00
14733;DHT22;7457;50.960;6.830;2024-02-26T09:13:29;5.60;100.00
14733;DHT22;7457;50.960;6.830;2024-02-26T09:15:54;5.70;100.00
14733;DHT22;7457;50.960;6.830;2024-02-26T09:18:20;5.70;100.00
14733;DHT22;7457;50.960;6.830;2024-02-26T09:20:46;5.70;100.00
14733;DHT22;7457;50.960;6.830;2024-02-26T09:23:12;5.70;100.00
14733;DHT22;7457;50.960;6.830;2024-02-26T09:25:38;5.70;100.00
14733;DHT22;7457;50.960;6.830;2024-02-26T09:28:04;5.70;100.00
14733;DHT22;7457;50.960;6.830;2024-02-26T09:30:29;5.70;100.00
14733;DHT22;7457;50.960;6.830;2024-02-26T09:32:55;5.70;100.00
14733;DHT22;7457;50.960;6.830;2024-02-26T09:35:21;5.70;100.00
14733;DHT22;7457;50.960;6.830;2024-02-26T09:37:47;5.70;100.00
14733;DHT22;7457;50.960;6.830;2024-02-26T09:40:14;5.70;100.00
14733;DHT22;7457;50.960;6.830;2024-02-26T09:42:44;5.70;100.00
14733;DHT22;7457;50.960;6.830;2024-02-26T09:45:17;5.80;100.00
14733;DHT22;7457;50.960;6.830;2024-02-26T09:47:43;5.80;100.00
14733;DHT22;7457;50.960;6.830;2024-02-26T09:50:10;5.70;100.00
14733;DHT22;7457;50.960;6.830;2024-02-26T09:52:39;5.70;100.00
14733;DHT22;7457;50.960;6.830;2024-02-26T09:55:08;5.70;100.00
14733;DHT22;7457;50.960;6.830;2024-02-26T09:57:36;5.80;100.00
14733;DHT22;7457;50.960;6.830;2024-02-26T10:00:04;5.80;100.00
14733;DHT22;7457;50.960;6.830;2024-02-26T10:02:35;5.80;100.00
14733;DHT22;7457;50.960;6.830;2024-02-26T10:05:02;5.80;100.00
14733;DHT22;7457;50.960;6.830;2024-02-26T10:07:31;5.80;100.00
14733;DHT22;7457;50.960;6.830;2024-02-26T10:09:57;5.80;100.00
14733;DHT22;7457;50.960;6.830;2024-02-26T10:12:24;5.90;100.00
14733;DHT22;7457;50.960;6.830;2024-02-26T10:14:51;5.90;100.00
14733;DHT22;7457;50.960;6.830;2024-02-26T10:17:18;5.90;100.00
14733;DHT22;7457;50.960;6.830;2024-02-26T10:19:44;5.90;100.00
14733;DHT22;7457;50.960;6.830;2024-02-26T10:22:10;5.90;100.00
14733;DHT22;7457;50.960;6.830;2024-02-26T10:24:37;5.90;100.00
14733;DHT22;7457;50.960;6.830;2024-02-26T10:27:03;5.90;100.00
14733;DHT22;7457;50.960;6.830;2024-02-26T10:29:29;6.00;100.00
14733;DHT22;7457;50.960;6.830;2024-02-26T10:31:56;6.00;100.00
14733;DHT22;7457;50.960;6.830;2024-02-26T10:34:21;6.10;100.00
14733;DHT22;7457;50.960;6.830;2024-02-26T10:36:49;6.10;100.00
14733;DHT22;7457;50.960;6.830;2024-02-26T10:39:15;6.20;100.00
14733;DHT22;7457;50.960;6.830;2024-02-26T10:41:42;6.30;100.00
14733;DHT22;7457;50.960;6.830;2024-02-26T10:44:12;6.40;100.00
14733;DHT22;7457;50.960;6.830;2024-02-26T10:46:41;6.50;100.00
14733;DHT22;7457;50.960;6.830;2024-02-26T10:49:13;6.50;100.00
14733;DHT22;7457;50.960;6.830;2024-02-26T10:51:43;6.60;100.00
14733;DHT22;7457;50.960;6.830;2024-02-26T10:54:15;6.70;100.00
14733;DHT22;7457;50.960;6.830;2024-02-26T10:56:42;6.80;100.00
14733;DHT22;7457;50.960;6.830;2024-02-26T10:59:12;6.90;100.00
14733;DHT22;7457;50.960;6.830;2024-02-26T11:01:39;7.00;100.00
14733;DHT22;7457;50.960;6.830;2024-02-26T11:04:08;7.00;100.00
14733;DHT22;7457;50.960;6.830;2024-02-26T11:06:34;7.00;100.00
14733;DHT22;7457;50.960;6.830;2024-02-26T11:09:01;7.00;100.00
14733;DHT22;7457;50.960;6.830;2024-02-26T11:11:29;7.00;100.00
14733;DHT22;7457;50.960;6.830;2024-02-26T11:13:56;7.00;100.00
14733;DHT22;7457;50.960;6.830;2024-02-26T11:16:23;7.00;100.00
14733;DHT22;7457;50.960;6.830;2024-02-26T11:18:52;7.00;100.00
14733;DHT22;7457;50.960;6.830;2024-02-26T11:21:21;7.00;100.00
14733;DHT22;7457;50.960;6.830;2024-02-26T11:23:56;7.00;100.00
14733;DHT22;7457;50.960;6.830;2024-02-26T11:26:23;7.00;100.00
14733;DHT22;7457;50.960;6.830;2024-02-26T11:28:51;7.00;100.00
14733;DHT22;7457;50.960;6.830;2024-02-26T11:31:17;7.00;100.00
14733;DHT22;7457;50.960;6.830;2024-02-26T11:33:51;7.00;100.00
14733;DHT22;7457;50.960;6.830;2024-02-26T11:36:17;7.00;100.00
14733;DHT22;7457;50.960;6.830;2024-02-26T11:38:44;6.90;100.00
14733;DHT22;7457;50.960;6.830;2024-02-26T11:41:09;7.00;100.00
14733;DHT22;7457;50.960;6.830;2024-02-26T11:43:58;7.00;100.00
14733;DHT22;7457;50.960;6.830;2024-02-26T11:46:33;7.10;100.00
14733;DHT22;7457;50.960;6.830;2024-02-26T11:49:03;7.00;100.00
14733;DHT22;7457;50.960;6.830;2024-02-26T11:51:34;7.10;100.00
14733;DHT22;7457;50.960;6.830;2024-02-26T11:54:00;7.10;100.00
14733;DHT22;7457;50.960;6.830;2024-02-26T11:56:26;7.10;100.00
14733;DHT22;7457;50.960;6.830;2024-02-26T11:59:04;7.10;100.00
14733;DHT22;7457;50.960;6.830;2024-02-26T12:01:47;7.20;100.00
14733;DHT22;7457;50.960;6.830;2024-02-26T12:04:27;7.10;100.00
14733;DHT22;7457;50.960;6.830;2024-02-26T12:07:00;7.10;100.00
14733;DHT22;7457;50.960;6.830;2024-02-26T12:09:39;7.10;100.00
14733;DHT22;7457;50.960;6.830;2024-02-26T12:12:10;7.10;100.00
14733;DHT22;7457;50.960;6.830;2024-02-26T12:17:25;7.00;100.00
14733;DHT22;7457;50.960;6.830;2024-02-26T12:19:51;7.00;100.00
14733;DHT22;7457;50.960;6.830;2024-02-26T12:22:19;7.00;100.00
14733;DHT22;7457;50.960;6.830;2024-02-26T12:24:45;6.90;100.00
14733;DHT22;7457;50.960;6.830;2024-02-26T12:27:11;6.90;100.00
14733;DHT22;7457;50.960;6.830;2024-02-26T12:29:37;6.90;100.00
14733;DHT22;7457;50.960;6.830;2024-02-26T12:32:06;6.90;100.00
14733;DHT22;7457;50.960;6.830;2024-02-26T12:34:33;6.90;100.00
14733;DHT22;7457;50.960;6.830;2024-02-26T12:36:58;6.90;100.00
14733;DHT22;7457;50.960;6.830;2024-02-26T12:39:24;6.90;100.00
14733;DHT22;7457;50.960;6.830;2024-02-26T12:41:50;6.90;100.00
14733;DHT22;7457;50.960;6.830;2024-02-26T12:44:16;6.90;100.00
14733;DHT22;7457;50.960;6.830;2024-02-26T12:46:42;6.90;100.00
14733;DHT22;7457;50.960;6.830;2024-02-26T12:49:08;6.90;100.00
14733;DHT22;7457;50.960;6.830;2024-02-26T12:51:34;6.90;100.00
14733;DHT22;7457;50.960;6.830;2024-02-26T12:54:00;6.90;100.00
14733;DHT22;7457;50.960;6.830;2024-02-26T12:56:33;6.90;100.00
14733;DHT22;7457;50.960;6.830;2024-02-26T12:58:59;6.90;100.00
14733;DHT22;7457;50.960;6.830;2024-02-26T13:01:25;6.90;100.00
14733;DHT22;7457;50.960;6.830;2024-02-26T13:03:52;6.90;100.00
14733;DHT22;7457;50.960;6.830;2024-02-26T13:06:18;6.80;100.00
14733;DHT22;7457;50.960;6.830;2024-02-26T13:08:45;6.90;100.00
14733;DHT22;7457;50.960;6.830;2024-02-26T13:11:12;6.90;100.00
14733;DHT22;7457;50.960;6.830;2024-02-26T13:13:38;6.90;100.00
14733;DHT22;7457;50.960;6.830;2024-02-26T13:16:04;7.00;100.00
14733;DHT22;7457;50.960;6.830;2024-02-26T13:18:31;7.00;100.00
14733;DHT22;7457;50.960;6.830;2024-02-26T13:23:33;7.00;100.00
14733;DHT22;7457;50.960;6.830;2024-02-26T13:25:59;7.00;100.00
14733;DHT22;7457;50.960;6.830;2024-02-26T13:28:25;7.00;100.00
14733;DHT22;7457;50.960;6.830;2024-02-26T13:30:57;7.00;100.00
14733;DHT22;7457;50.960;6.830;2024-02-26T13:33:24;6.90;100.00
14733;DHT22;7457;50.960;6.830;2024-02-26T13:35:51;7.00;100.00
14733;DHT22;7457;50.960;6.830;2024-02-26T13:38:17;7.00;100.00
14733;DHT22;7457;50.960;6.830;2024-02-26T13:40:43;7.00;100.00
14733;DHT22;7457;50.960;6.830;2024-02-26T13:43:09;7.00;100.00
14733;DHT22;7457;50.960;6.830;2024-02-26T13:45:35;7.00;100.00
14733;DHT22;7457;50.960;6.830;2024-02-26T13:48:06;7.00;100.00
14733;DHT22;7457;50.960;6.830;2024-02-26T13:50:32;7.00;100.00
14733;DHT22;7457;50.960;6.830;2024-02-26T13:52:58;7.00;100.00
14733;DHT22;7457;50.960;6.830;2024-02-26T13:55:27;7.00;100.00
14733;DHT22;7457;50.960;6.830;2024-02-26T13:57:57;7.00;100.00
14733;DHT22;7457;50.960;6.830;2024-02-26T14:00:24;7.00;100.00
14733;DHT22;7457;50.960;6.830;2024-02-26T14:02:52;7.00;100.00
14733;DHT22;7457;50.960;6.830;2024-02-26T14:05:18;6.90;100.00
14733;DHT22;7457;50.960;6.830;2024-02-26T14:07:44;6.90;100.00
14733;DHT22;7457;50.960;6.830;2024-02-26T14:10:13;6.80;100.00
14733;DHT22;7457;50.960;6.830;2024-02-26T14:12:39;6.80;100.00
14733;DHT22;7457;50.960;6.830;2024-02-26T14:15:09;6.80;100.00
14733;DHT22;7457;50.960;6.830;2024-02-26T14:17:36;6.90;100.00
14733;DHT22;7457;50.960;6.830;2024-02-26T14:20:02;6.90;100.00
14733;DHT22;7457;50.960;6.830;2024-02-26T14:22:28;6.90;100.00
14733;DHT22;7457;50.960;6.830;2024-02-26T14:24:56;6.90;100.00
14733;DHT22;7457;50.960;6.830;2024-02-26T14:27:22;6.90;100.00
14733;DHT22;7457;50.960;6.830;2024-02-26T14:29:48;7.00;100.00
14733;DHT22;7457;50.960;6.830;2024-02-26T14:32:14;7.00;100.00
14733;DHT22;7457;50.960;6.830;2024-02-26T14:34:41;7.10;100.00
14733;DHT22;7457;50.960;6.830;2024-02-26T14:37:06;7.10;100.00
14733;DHT22;7457;50.960;6.830;2024-02-26T14:39:33;7.10;100.00
14733;DHT22;7457;50.960;6.830;2024-02-26T14:41:59;7.20;100.00
14733;DHT22;7457;50.960;6.830;2024-02-26T14:44:25;7.20;100.00
14733;DHT22;7457;50.960;6.830;2024-02-26T14:46:51;7.20;100.00
14733;DHT22;7457;50.960;6.830;2024-02-26T14:49:17;7.20;100.00
14733;DHT22;7457;50.960;6.830;2024-02-26T14:51:43;7.20;100.00
14733;DHT22;7457;50.960;6.830;2024-02-26T14:54:13;7.20;100.00
14733;DHT22;7457;50.960;6.830;2024-02-26T14:56:39;7.20;100.00
14733;DHT22;7457;50.960;6.830;2024-02-26T14:59:04;7.20;100.00
14733;DHT22;7457;50.960;6.830;2024-02-26T15:01:30;7.20;100.00
14733;DHT22;7457;50.960;6.830;2024-02-26T15:03:56;7.30;100.00
14733;DHT22;7457;50.960;6.830;2024-02-26T15:06:23;7.30;100.00
14733;DHT22;7457;50.960;6.830;2024-02-26T15:08:48;7.40;100.00
14733;DHT22;7457;50.960;6.830;2024-02-26T15:11:14;7.40;100.00
14733;DHT22;7457;50.960;6.830;2024-02-26T15:13:41;7.40;100.00
14733;DHT22;7457;50.960;6.830;2024-02-26T15:16:06;7.40;100.00
14733;DHT22;7457;50.960;6.830;2024-02-26T15:18:32;7.40;100.00
14733;DHT22;7457;50.960;6.830;2024-02-26T15:20:58;7.50;100.00
14733;DHT22;7457;50.960;6.830;2024-02-26T15:23:24;7.40;100.00
14733;DHT22;7457;50.960;6.830;2024-02-26T15:25:50;7.40;100.00
14733;DHT22;7457;50.960;6.830;2024-02-26T15:28:15;7.40;100.00
14733;DHT22;7457;50.960;6.830;2024-02-26T15:30:42;7.50;100.00
14733;DHT22;7457;50.960;6.830;2024-02-26T15:33:07;7.40;100.00
14733;DHT22;7457;50.960;6.830;2024-02-26T15:35:34;7.50;100.00
14733;DHT22;7457;50.960;6.830;2024-02-26T15:38:00;7.40;100.00
14733;DHT22;7457;50.960;6.830;2024-02-26T15:40:26;7.40;100.00
14733;DHT22;7457;50.960;6.830;2024-02-26T15:42:52;7.40;100.00
14733;DHT22;7457;50.960;6.830;2024-02-26T15:45:18;7.40;100.00
14733;DHT22;7457;50.960;6.830;2024-02-26T15:47:44;7.40;100.00
14733;DHT22;7457;50.960;6.830;2024-02-26T15:50:10;7.40;100.00
14733;DHT22;7457;50.960;6.830;2024-02-26T15:52:37;7.40;100.00